Time;durP1;ratioP1;P1;durP2;ratioP2;P2;SDS_P1;SDS_P2;PMS_P1;PMS_P2;Temp;Humidity;BMP_temperature;BMP_pressure;BME280_temperature;BME280_humidity;BME280_pressure;Samples;Min_cycle;Max_cycle;Signal;HPM_P1;HPM_P2
2023/05/03 00:00:15;;;;;;;2.83;2.03;;;9.00;93.80;;;;;;5013987;28;20236;-78
2023/05/03 00:02:40;;;;;;;3.70;2.23;;;9.00;93.70;;;;;;5017083;28;20200;-77
2023/05/03 00:05:11;;;;;;;4.47;2.30;;;9.00;93.70;;;;;;5013371;28;20202;-76
2023/05/03 00:07:37;;;;;;;4.60;2.00;;;8.90;93.90;;;;;;5015526;28;20212;-76
2023/05/03 00:10:03;;;;;;;3.63;2.00;;;8.90;93.90;;;;;;5017612;28;20295;-77
2023/05/03 00:12:29;;;;;;;2.73;1.93;;;8.80;94.30;;;;;;5014163;28;20951;-79
2023/05/03 00:14:54;;;;;;;3.67;2.23;;;8.70;94.30;;;;;;5017072;28;20195;-77
2023/05/03 00:17:20;;;;;;;7.63;2.63;;;8.80;94.50;;;;;;5013333;28;20215;-86
2023/05/03 00:19:46;;;;;;;3.07;1.93;;;8.80;94.40;;;;;;5029537;28;20219;-80
2023/05/03 00:22:11;;;;;;;4.80;3.73;;;8.60;94.70;;;;;;5009329;28;20241;-78
2023/05/03 00:24:37;;;;;;;2.50;2.30;;;8.50;95.20;;;;;;5011149;28;20600;-77
2023/05/03 00:27:03;;;;;;;6.40;2.30;;;8.40;95.20;;;;;;5014091;28;20191;-78
2023/05/03 00:29:29;;;;;;;3.10;2.23;;;8.40;95.40;;;;;;5015069;28;20306;-80
2023/05/03 00:31:54;;;;;;;8.27;2.47;;;8.40;95.60;;;;;;5011511;28;20682;-77
2023/05/03 00:34:20;;;;;;;5.10;2.60;;;8.30;95.80;;;;;;5011709;28;20201;-76
2023/05/03 00:36:45;;;;;;;4.07;2.27;;;8.20;96.10;;;;;;5017883;28;20843;-77
2023/05/03 00:39:11;;;;;;;3.03;2.20;;;8.20;96.40;;;;;;5015765;28;20231;-78
2023/05/03 00:41:37;;;;;;;4.90;2.00;;;8.20;96.30;;;;;;5015992;28;20249;-79
2023/05/03 00:44:03;;;;;;;5.47;2.27;;;8.20;96.50;;;;;;5011479;28;20199;-76
2023/05/03 00:46:29;;;;;;;2.57;1.97;;;8.20;96.80;;;;;;5017611;28;20221;-77
2023/05/03 00:48:54;;;;;;;4.77;2.13;;;8.10;97.00;;;;;;5010009;28;20849;-76
2023/05/03 00:51:21;;;;;;;5.70;2.23;;;8.00;97.00;;;;;;5005787;28;20199;-77
2023/05/03 00:53:46;;;;;;;5.90;3.13;;;8.00;97.20;;;;;;5008460;28;20404;-77
2023/05/03 00:56:16;;;;;;;7.20;2.67;;;7.90;97.50;;;;;;5016375;28;20220;-78
2023/05/03 00:58:41;;;;;;;6.07;2.03;;;7.90;97.70;;;;;;5013016;28;20200;-78
2023/05/03 01:01:07;;;;;;;3.37;2.33;;;7.80;98.00;;;;;;5016660;28;20561;-76
2023/05/03 01:03:35;;;;;;;3.63;2.27;;;7.90;98.10;;;;;;5021189;28;20245;-76
2023/05/03 01:06:16;;;;;;;5.50;2.40;;;7.80;98.20;;;;;;5021946;28;20199;-77
2023/05/03 01:08:53;;;;;;;4.37;2.17;;;7.80;98.40;;;;;;5022616;28;20195;-75
2023/05/03 01:11:26;;;;;;;2.03;1.87;;;7.70;98.70;;;;;;5014225;28;20203;-77
2023/05/03 01:13:56;;;;;;;3.83;1.90;;;7.50;99.00;;;;;;5012596;28;20215;-76
2023/05/03 01:16:25;;;;;;;3.07;2.23;;;7.50;99.30;;;;;;5003748;28;20216;-76
2023/05/03 01:18:53;;;;;;;2.77;2.10;;;7.50;99.50;;;;;;5014681;28;20211;-76
2023/05/03 01:21:21;;;;;;;3.10;2.47;;;7.50;99.70;;;;;;5005467;28;20285;-76
2023/05/03 01:24:02;;;;;;;3.30;2.33;;;7.50;99.80;;;;;;5015705;28;20203;-76
2023/05/03 01:26:28;;;;;;;3.77;2.77;;;7.40;99.90;;;;;;5018542;28;20238;-75
2023/05/03 01:28:54;;;;;;;5.93;2.80;;;7.40;99.90;;;;;;5010907;28;20302;-75
2023/05/03 01:31:48;;;;;;;3.60;2.27;;;7.30;99.90;;;;;;5015091;28;20222;-76
2023/05/03 01:34:17;;;;;;;4.27;2.53;;;7.30;99.90;;;;;;5017819;28;20299;-76
2023/05/03 01:36:43;;;;;;;4.53;2.87;;;7.20;99.90;;;;;;5017711;28;20219;-76
2023/05/03 01:39:21;;;;;;;8.30;2.63;;;7.10;99.90;;;;;;5002019;28;20283;-76
2023/05/03 01:41:49;;;;;;;6.37;2.10;;;7.10;99.90;;;;;;5017671;28;20752;-77
2023/05/03 01:44:15;;;;;;;3.73;2.70;;;7.10;99.90;;;;;;5010198;28;20211;-76
2023/05/03 01:46:45;;;;;;;3.20;1.97;;;7.00;99.90;;;;;;5020195;28;20206;-77
2023/05/03 01:49:11;;;;;;;2.73;1.97;;;7.00;99.90;;;;;;5014375;28;20203;-77
2023/05/03 01:51:36;;;;;;;4.43;2.40;;;7.00;99.90;;;;;;5023776;28;20198;-77
2023/05/03 01:54:02;;;;;;;2.70;2.50;;;6.90;99.90;;;;;;5017786;28;20208;-76
2023/05/03 01:56:27;;;;;;;5.17;2.80;;;6.90;99.90;;;;;;5014012;28;20211;-77
2023/05/03 01:58:53;;;;;;;5.33;2.17;;;6.80;99.90;;;;;;5015100;28;20208;-78
2023/05/03 02:01:18;;;;;;;5.77;2.77;;;6.70;99.90;;;;;;5018904;28;20195;-78
2023/05/03 02:03:44;;;;;;;3.67;2.20;;;6.70;99.90;;;;;;5019897;28;20691;-78
2023/05/03 02:06:09;;;;;;;6.33;2.87;;;6.70;99.90;;;;;;5018497;28;20204;-78
2023/05/03 02:08:35;;;;;;;6.37;2.10;;;6.60;99.90;;;;;;5019728;28;20203;-79
2023/05/03 02:11:00;;;;;;;3.87;2.40;;;6.60;99.90;;;;;;5010567;28;20703;-79
2023/05/03 02:13:26;;;;;;;5.70;2.10;;;6.60;99.90;;;;;;5012466;28;20253;-77
2023/05/03 02:15:52;;;;;;;3.97;1.87;;;6.60;99.90;;;;;;5016835;28;20203;-77
2023/05/03 02:18:19;;;;;;;2.70;2.47;;;6.60;99.90;;;;;;4997100;28;20217;-78
2023/05/03 02:20:45;;;;;;;2.80;2.37;;;6.50;99.90;;;;;;5014434;28;20698;-77
2023/05/03 02:23:10;;;;;;;4.60;2.43;;;6.50;99.90;;;;;;5019291;28;20280;-76
2023/05/03 02:25:36;;;;;;;3.80;2.30;;;6.40;99.90;;;;;;5002133;28;20574;-72
2023/05/03 02:28:02;;;;;;;2.27;2.07;;;6.40;99.90;;;;;;5010390;28;20220;-76
2023/05/03 02:30:27;;;;;;;5.10;2.17;;;6.30;99.90;;;;;;5007278;28;20725;-77
2023/05/03 02:32:53;;;;;;;8.07;2.13;;;6.30;99.90;;;;;;5019971;28;20210;-76
2023/05/03 02:35:18;;;;;;;5.23;3.07;;;6.30;99.90;;;;;;5019297;28;20766;-76
2023/05/03 02:37:43;;;;;;;2.17;1.90;;;6.30;99.90;;;;;;5013560;28;20273;-75
2023/05/03 02:40:09;;;;;;;6.50;2.67;;;6.20;99.90;;;;;;5018586;28;20567;-75
2023/05/03 02:42:35;;;;;;;4.03;2.53;;;6.20;99.90;;;;;;5016524;28;20226;-77
2023/05/03 02:45:00;;;;;;;2.87;2.40;;;6.10;99.90;;;;;;5013851;28;20265;-76
2023/05/03 02:47:26;;;;;;;6.23;2.60;;;6.10;99.90;;;;;;5011497;28;20207;-76
2023/05/03 02:49:51;;;;;;;4.97;1.70;;;6.10;99.90;;;;;;5016962;28;20206;-77
2023/05/03 02:52:17;;;;;;;3.27;2.03;;;6.10;99.90;;;;;;5015950;28;20196;-77
2023/05/03 02:54:42;;;;;;;4.97;1.83;;;6.10;99.90;;;;;;5018352;28;20214;-76
2023/05/03 02:57:08;;;;;;;3.90;2.13;;;6.10;99.90;;;;;;5015651;28;20705;-76
2023/05/03 02:59:33;;;;;;;4.70;2.77;;;6.10;99.90;;;;;;5013577;28;20229;-77
2023/05/03 03:01:59;;;;;;;10.03;2.70;;;6.10;99.90;;;;;;5017022;28;20196;-75
2023/05/03 03:04:25;;;;;;;2.73;2.53;;;6.10;99.90;;;;;;5018519;28;20717;-75
2023/05/03 03:06:52;;;;;;;2.73;1.93;;;6.10;99.90;;;;;;5018254;28;20334;-76
2023/05/03 03:09:18;;;;;;;8.03;2.50;;;6.10;99.90;;;;;;5016218;28;20203;-75
2023/05/03 03:11:44;;;;;;;5.67;2.50;;;6.10;99.90;;;;;;5018161;28;20208;-75
2023/05/03 03:14:09;;;;;;;5.07;2.27;;;6.10;99.90;;;;;;5018062;28;20203;-74
2023/05/03 03:16:35;;;;;;;3.50;2.43;;;6.10;99.90;;;;;;5005965;28;20726;-74
2023/05/03 03:19:00;;;;;;;6.83;2.57;;;6.10;99.90;;;;;;5007688;28;20718;-76
2023/05/03 03:21:27;;;;;;;9.37;4.27;;;6.10;99.90;;;;;;5008855;28;20220;-75
2023/05/03 03:23:53;;;;;;;4.73;2.67;;;6.00;99.90;;;;;;5013274;28;20304;-76
2023/05/03 03:26:18;;;;;;;8.67;2.40;;;6.00;99.90;;;;;;5009811;28;20798;-75
2023/05/03 03:28:44;;;;;;;6.37;4.17;;;5.90;99.90;;;;;;5010074;28;20203;-75
2023/05/03 03:31:10;;;;;;;3.63;2.10;;;5.90;99.90;;;;;;5007586;28;20658;-74
2023/05/03 03:33:35;;;;;;;5.60;2.97;;;5.80;99.90;;;;;;5006891;28;20579;-76
2023/05/03 03:36:01;;;;;;;3.67;2.67;;;5.80;99.90;;;;;;5007746;28;20219;-76
2023/05/03 03:38:26;;;;;;;4.43;2.67;;;5.70;99.90;;;;;;5008263;28;20916;-76
2023/05/03 03:40:53;;;;;;;3.70;2.03;;;5.70;99.90;;;;;;5005863;28;20284;-76
2023/05/03 03:43:18;;;;;;;4.03;2.90;;;5.60;99.90;;;;;;5013172;28;20188;-76
2023/05/03 03:45:44;;;;;;;5.30;3.13;;;5.60;99.90;;;;;;5012932;28;20202;-76
2023/05/03 03:48:09;;;;;;;2.50;2.27;;;5.50;99.90;;;;;;5012017;28;20687;-76
2023/05/03 03:50:36;;;;;;;5.17;2.77;;;5.50;99.90;;;;;;4995025;28;20773;-77
2023/05/03 03:53:01;;;;;;;3.40;3.00;;;5.50;99.90;;;;;;5014622;28;20195;-77
2023/05/03 03:55:27;;;;;;;4.83;3.33;;;5.50;99.90;;;;;;5015722;28;20198;-77
2023/05/03 03:57:52;;;;;;;6.70;2.60;;;5.50;99.90;;;;;;5018196;28;20230;-76
2023/05/03 04:00:18;;;;;;;4.77;2.50;;;5.50;99.90;;;;;;5017540;28;20666;-77
2023/05/03 04:02:44;;;;;;;5.33;2.40;;;5.50;99.90;;;;;;5016508;28;20215;-76
2023/05/03 04:05:10;;;;;;;9.10;3.17;;;5.40;99.90;;;;;;5006705;28;20200;-76
2023/05/03 04:07:35;;;;;;;5.37;2.60;;;5.40;99.90;;;;;;4995005;28;20206;-75
2023/05/03 04:10:01;;;;;;;5.30;2.67;;;5.40;99.90;;;;;;5013544;28;20203;-76
2023/05/03 04:12:26;;;;;;;5.80;2.63;;;5.40;99.90;;;;;;5027019;28;20203;-76
2023/05/03 04:14:52;;;;;;;6.60;2.50;;;5.50;99.90;;;;;;5013138;28;20207;-78
2023/05/03 04:17:18;;;;;;;7.20;3.97;;;5.40;99.90;;;;;;5012973;28;20211;-78
2023/05/03 04:19:43;;;;;;;4.70;2.50;;;5.40;99.90;;;;;;5013819;28;20223;-77
2023/05/03 04:22:09;;;;;;;4.67;2.70;;;5.40;99.90;;;;;;5012401;28;21019;-77
2023/05/03 04:24:38;;;;;;;4.53;2.70;;;5.40;99.90;;;;;;5016503;28;20613;-77
2023/05/03 04:27:04;;;;;;;5.67;3.40;;;5.30;99.90;;;;;;5021892;28;20329;-77
2023/05/03 04:29:29;;;;;;;5.97;3.00;;;5.30;99.90;;;;;;5000237;28;21002;-77
2023/05/03 04:31:55;;;;;;;4.07;3.00;;;5.40;99.90;;;;;;5012340;28;20896;-75
2023/05/03 04:34:21;;;;;;;6.60;3.13;;;5.40;99.90;;;;;;5017063;28;20221;-75
2023/05/03 04:36:47;;;;;;;3.87;2.30;;;5.50;99.90;;;;;;5016737;28;20230;-75
2023/05/03 04:39:14;;;;;;;2.87;2.50;;;5.50;99.90;;;;;;5015389;28;20276;-76
2023/05/03 04:41:40;;;;;;;3.93;2.63;;;5.50;99.90;;;;;;5016334;28;20204;-75
2023/05/03 04:44:06;;;;;;;4.33;2.10;;;5.60;99.90;;;;;;5018797;28;20236;-76
2023/05/03 04:46:32;;;;;;;6.63;2.83;;;5.60;99.90;;;;;;5012701;28;20227;-77
2023/05/03 04:48:57;;;;;;;8.10;3.73;;;5.70;99.90;;;;;;5011726;28;20606;-76
2023/05/03 04:51:23;;;;;;;3.57;2.43;;;5.90;99.90;;;;;;5016283;28;20223;-76
2023/05/03 04:53:49;;;;;;;6.83;2.50;;;5.70;99.90;;;;;;5016580;28;20207;-77
2023/05/03 04:56:15;;;;;;;8.30;2.70;;;5.70;99.90;;;;;;5007697;28;20522;-76
2023/05/03 04:58:41;;;;;;;4.73;3.07;;;5.70;99.90;;;;;;5004098;28;20228;-75
2023/05/03 05:01:07;;;;;;;2.87;2.20;;;5.80;99.90;;;;;;5007591;28;20200;-76
2023/05/03 05:03:33;;;;;;;2.90;2.50;;;5.70;99.90;;;;;;5004374;28;20207;-76
2023/05/03 05:05:58;;;;;;;5.10;2.30;;;5.90;99.90;;;;;;4996255;28;20627;-76
2023/05/03 05:08:24;;;;;;;3.57;2.17;;;5.90;99.90;;;;;;5005325;28;20565;-75
2023/05/03 05:10:49;;;;;;;2.63;2.03;;;5.90;99.90;;;;;;5015966;28;20221;-75
2023/05/03 05:13:15;;;;;;;3.07;2.50;;;5.90;99.90;;;;;;5012323;28;20687;-78
2023/05/03 05:15:40;;;;;;;10.77;2.60;;;6.00;99.90;;;;;;5014023;28;20200;-74
2023/05/03 05:18:06;;;;;;;5.20;2.63;;;6.00;99.90;;;;;;5016694;28;20215;-77
2023/05/03 05:20:31;;;;;;;7.30;2.87;;;6.10;99.90;;;;;;5016592;28;20705;-77
2023/05/03 05:22:57;;;;;;;5.93;2.60;;;6.00;99.90;;;;;;5016363;28;20229;-76
2023/05/03 05:25:23;;;;;;;7.07;4.53;;;6.10;99.90;;;;;;5017626;28;20190;-76
2023/05/03 05:27:49;;;;;;;6.90;2.70;;;6.10;99.90;;;;;;5020684;28;20199;-76
2023/05/03 05:30:15;;;;;;;4.67;2.70;;;6.20;99.90;;;;;;5009300;28;20844;-77
2023/05/03 05:32:40;;;;;;;4.70;2.50;;;6.30;99.90;;;;;;5011287;28;20696;-76
2023/05/03 05:35:06;;;;;;;4.33;2.40;;;6.40;99.90;;;;;;5012994;28;20215;-76
2023/05/03 05:37:32;;;;;;;8.40;2.57;;;6.30;99.90;;;;;;5010070;28;20699;-79
2023/05/03 05:39:57;;;;;;;9.97;3.00;;;6.20;99.90;;;;;;5014818;28;20633;-78
2023/05/03 05:42:23;;;;;;;3.87;2.33;;;6.40;99.90;;;;;;5015870;28;20274;-78
2023/05/03 05:44:48;;;;;;;6.23;2.70;;;6.50;99.90;;;;;;5012143;28;20199;-75
2023/05/03 05:47:14;;;;;;;3.93;2.47;;;6.60;99.90;;;;;;5018554;28;20298;-77
2023/05/03 05:49:40;;;;;;;5.43;2.13;;;6.70;99.90;;;;;;5013250;28;20205;-76
2023/05/03 05:52:05;;;;;;;4.93;2.47;;;6.70;99.90;;;;;;4987472;28;20267;-76
2023/05/03 05:54:31;;;;;;;4.00;2.70;;;6.60;99.90;;;;;;4995973;28;20229;-78
2023/05/03 05:56:57;;;;;;;7.77;2.90;;;6.70;99.90;;;;;;5009024;28;20792;-78
2023/05/03 05:59:22;;;;;;;5.67;2.10;;;6.80;99.90;;;;;;4998458;28;20281;-77
2023/05/03 06:01:48;;;;;;;7.33;2.73;;;6.80;99.90;;;;;;5015717;28;20206;-77
2023/05/03 06:04:14;;;;;;;2.57;2.27;;;6.90;99.90;;;;;;5000056;28;20200;-77
2023/05/03 06:06:41;;;;;;;12.53;2.57;;;7.10;99.90;;;;;;5013814;28;20195;-76
2023/05/03 06:09:07;;;;;;;4.53;2.37;;;7.20;99.90;;;;;;5010307;28;20203;-76
2023/05/03 06:11:34;;;;;;;3.13;1.93;;;7.30;99.90;;;;;;5010006;28;20213;-78
2023/05/03 06:14:02;;;;;;;3.83;1.70;;;7.50;99.90;;;;;;5007555;28;20284;-79
2023/05/03 06:16:28;;;;;;;7.10;2.20;;;7.50;99.90;;;;;;5011182;28;20208;-78
2023/05/03 06:18:54;;;;;;;5.73;1.90;;;7.40;99.90;;;;;;5019951;28;20215;-79
2023/05/03 06:21:20;;;;;;;5.70;2.07;;;7.50;99.90;;;;;;5013262;28;20217;-78
2023/05/03 06:23:46;;;;;;;6.47;2.20;;;7.60;99.90;;;;;;5009764;28;20196;-79
2023/05/03 06:26:11;;;;;;;3.70;2.40;;;7.80;99.90;;;;;;5006988;28;20200;-78
2023/05/03 06:28:37;;;;;;;4.57;1.90;;;8.10;99.90;;;;;;5007278;28;20196;-78
2023/05/03 06:31:02;;;;;;;3.93;2.00;;;8.20;99.90;;;;;;5017113;28;20624;-79
2023/05/03 06:33:28;;;;;;;4.23;2.10;;;8.00;99.90;;;;;;5013639;28;20207;-78
2023/05/03 06:35:53;;;;;;;5.93;2.37;;;8.00;99.90;;;;;;5014997;28;20673;-78
2023/05/03 06:38:19;;;;;;;5.37;2.00;;;8.20;99.90;;;;;;5017116;28;20207;-77
2023/05/03 06:40:45;;;;;;;9.23;2.40;;;8.40;99.90;;;;;;5024158;28;20682;-78
2023/05/03 06:43:11;;;;;;;3.10;2.10;;;8.40;99.90;;;;;;5024475;28;20192;-77
2023/05/03 06:45:38;;;;;;;7.30;2.60;;;8.40;99.90;;;;;;5017677;28;20202;-77
2023/05/03 06:48:05;;;;;;;3.33;1.80;;;8.50;99.90;;;;;;5014795;28;20313;-78
2023/05/03 06:50:30;;;;;;;4.77;1.80;;;8.50;99.90;;;;;;5019832;28;20199;-77
2023/05/03 06:52:56;;;;;;;4.13;2.17;;;8.40;99.90;;;;;;5019599;28;20649;-78
2023/05/03 06:55:21;;;;;;;3.83;1.87;;;8.40;99.90;;;;;;5001313;28;20215;-78
2023/05/03 06:57:47;;;;;;;7.90;2.07;;;8.50;99.90;;;;;;5016875;28;20247;-74
2023/05/03 07:00:14;;;;;;;5.70;2.33;;;8.60;99.90;;;;;;5017784;28;20231;-75
2023/05/03 07:02:40;;;;;;;4.60;2.20;;;8.70;99.90;;;;;;5016810;28;20215;-78
2023/05/03 07:05:06;;;;;;;3.23;1.63;;;8.70;99.90;;;;;;5012630;28;20195;-76
2023/05/03 07:07:32;;;;;;;11.00;2.57;;;8.80;99.90;;;;;;5011772;28;20215;-77
2023/05/03 07:09:57;;;;;;;6.80;2.33;;;8.80;99.90;;;;;;5017451;28;20212;-76
2023/05/03 07:12:26;;;;;;;6.97;1.80;;;8.90;99.50;;;;;;5018546;28;20696;-76
2023/05/03 07:14:52;;;;;;;4.60;1.40;;;9.00;99.10;;;;;;5017230;28;20299;-80
2023/05/03 07:17:18;;;;;;;4.37;1.97;;;9.10;97.30;;;;;;5017293;28;20298;-76
2023/05/03 07:19:43;;;;;;;4.57;2.03;;;9.00;96.50;;;;;;5014944;28;20221;-78
2023/05/03 07:22:09;;;;;;;5.50;1.90;;;9.00;97.30;;;;;;5015458;28;20259;-79
2023/05/03 07:24:34;;;;;;;2.77;1.77;;;9.10;97.70;;;;;;5018891;28;20863;-86
2023/05/03 07:27:00;;;;;;;3.43;1.67;;;9.20;97.80;;;;;;5022084;28;20211;-88
2023/05/03 07:29:26;;;;;;;180.63;25.67;;;9.10;97.00;;;;;;5083502;22;20680;-76
2023/05/03 07:31:52;;;;;;;5.47;1.70;;;9.20;97.30;;;;;;5035486;28;20842;-76
2023/05/03 07:34:17;;;;;;;6.13;2.30;;;9.10;96.60;;;;;;5036102;28;20210;-76
2023/05/03 07:36:43;;;;;;;5.23;2.30;;;9.10;97.00;;;;;;5030599;28;20242;-76
2023/05/03 07:39:08;;;;;;;5.77;1.90;;;9.20;96.70;;;;;;5026656;28;20206;-75
2023/05/03 07:41:34;;;;;;;4.43;1.90;;;9.50;96.20;;;;;;5025828;28;21131;-77
2023/05/03 07:43:59;;;;;;;3.77;2.10;;;9.50;96.10;;;;;;5026506;28;20772;-76
2023/05/03 07:46:25;;;;;;;2.17;1.63;;;9.60;96.20;;;;;;5026270;28;20209;-76
2023/05/03 07:48:51;;;;;;;5.87;2.13;;;9.60;96.60;;;;;;5026232;28;20210;-78
2023/05/03 07:51:16;;;;;;;3.33;1.90;;;9.60;96.20;;;;;;5025135;28;20375;-80
2023/05/03 07:53:43;;;;;;;7.10;2.00;;;9.60;95.70;;;;;;5028335;28;20256;-79
2023/05/03 07:56:08;;;;;;;6.63;2.70;;;9.60;95.70;;;;;;5026678;28;20195;-80
2023/05/03 07:58:34;;;;;;;5.90;1.90;;;9.90;95.60;;;;;;5023611;28;20675;-80
2023/05/03 08:00:59;;;;;;;3.50;2.10;;;9.90;95.10;;;;;;5026521;28;20635;-78
2023/05/03 08:03:25;;;;;;;4.57;2.00;;;10.00;94.50;;;;;;5025495;28;20726;-78
2023/05/03 08:05:50;;;;;;;5.17;2.00;;;10.10;94.30;;;;;;5028542;28;20245;-76
2023/05/03 08:08:16;;;;;;;4.07;2.00;;;10.40;92.90;;;;;;5034347;28;20188;-76
2023/05/03 08:10:41;;;;;;;3.80;2.23;;;10.20;93.10;;;;;;5034476;28;20203;-78
2023/05/03 08:13:07;;;;;;;4.07;1.90;;;10.20;93.60;;;;;;5029566;28;20249;-78
2023/05/03 08:15:32;;;;;;;7.43;3.07;;;10.40;93.60;;;;;;5033658;28;20226;-80
2023/05/03 08:17:59;;;;;;;4.73;2.33;;;10.30;93.90;;;;;;5026094;28;20211;-82
2023/05/03 08:20:28;;;;;;;3.50;2.30;;;10.30;94.10;;;;;;5025541;28;20203;-77
2023/05/03 08:22:55;;;;;;;3.03;2.53;;;10.30;94.50;;;;;;5033771;28;20196;-77
2023/05/03 08:25:22;;;;;;;5.33;2.20;;;10.50;94.40;;;;;;5032592;28;20734;-79
2023/05/03 08:27:48;;;;;;;2.70;2.50;;;10.20;93.80;;;;;;5023127;28;20217;-78
2023/05/03 08:30:13;;;;;;;4.03;2.83;;;10.20;94.00;;;;;;5025490;28;20240;-80
2023/05/03 08:32:39;;;;;;;3.43;2.07;;;10.50;93.60;;;;;;5024793;28;20681;-81
2023/05/03 08:35:06;;;;;;;6.60;2.23;;;10.60;93.30;;;;;;5021498;28;20202;-78
2023/05/03 08:37:37;;;;;;;4.40;2.27;;;10.40;93.50;;;;;;5026095;28;20212;-79
2023/05/03 08:40:05;;;;;;;4.23;2.10;;;10.50;94.00;;;;;;5024500;28;20199;-75
2023/05/03 08:42:32;;;;;;;7.70;2.70;;;10.60;93.60;;;;;;5022582;28;20262;-76
2023/05/03 08:44:58;;;;;;;4.57;2.13;;;10.70;93.40;;;;;;5024478;28;20208;-76
2023/05/03 08:47:24;;;;;;;8.27;2.20;;;10.70;93.70;;;;;;5025288;28;20201;-77
2023/05/03 08:49:52;;;;;;;6.20;2.20;;;10.80;93.30;;;;;;5027376;28;20447;-76
2023/05/03 08:52:20;;;;;;;4.00;2.03;;;10.90;93.00;;;;;;5021646;28;20217;-78
2023/05/03 08:54:45;;;;;;;5.20;2.67;;;11.00;92.60;;;;;;5025836;28;20218;-78
2023/05/03 08:57:14;;;;;;;6.93;2.30;;;11.00;93.10;;;;;;5027050;28;20294;-78
2023/05/03 08:59:52;;;;;;;5.17;2.60;;;11.10;92.70;;;;;;5026151;28;20202;-78
2023/05/03 09:02:18;;;;;;;3.17;1.87;;;11.10;92.90;;;;;;5025232;28;20341;-77
2023/05/03 09:04:44;;;;;;;5.50;3.80;;;11.20;92.20;;;;;;5029590;28;20327;-76
2023/05/03 09:07:11;;;;;;;9.37;5.93;;;11.20;91.70;;;;;;5029558;28;20335;-78
2023/05/03 09:09:37;;;;;;;12.43;6.73;;;11.50;91.30;;;;;;5029129;28;20204;-77
2023/05/03 09:12:03;;;;;;;8.23;6.13;;;11.50;91.80;;;;;;5036299;28;20631;-77
2023/05/03 09:14:29;;;;;;;7.43;3.50;;;11.40;91.30;;;;;;5039468;28;20191;-78
2023/05/03 09:16:55;;;;;;;6.13;2.77;;;11.50;91.90;;;;;;5029270;28;20231;-75
2023/05/03 09:19:20;;;;;;;3.80;2.10;;;11.50;91.80;;;;;;5026854;28;20197;-76
2023/05/03 09:21:46;;;;;;;6.53;1.97;;;11.40;92.20;;;;;;5026821;28;20562;-73
2023/05/03 09:24:19;;;;;;;5.37;2.20;;;11.50;91.60;;;;;;5028694;28;20192;-72
2023/05/03 09:26:47;;;;;;;4.50;2.00;;;11.30;91.10;;;;;;5027227;28;20206;-70
2023/05/03 09:29:36;;;;;;;11.60;2.13;;;11.70;90.90;;;;;;5028284;28;20692;-69
2023/05/03 09:32:07;;;;;;;5.23;1.80;;;11.90;91.10;;;;;;5024488;28;20732;-76
2023/05/03 09:34:37;;;;;;;4.50;3.17;;;11.70;90.00;;;;;;5029259;28;20716;-74
2023/05/03 09:37:02;;;;;;;7.27;4.33;;;11.60;88.70;;;;;;5024286;28;20224;-74
2023/05/03 09:39:28;;;;;;;5.10;2.57;;;11.90;88.60;;;;;;5028367;28;20694;-76
2023/05/03 09:41:55;;;;;;;4.30;1.90;;;11.90;89.90;;;;;;5029018;28;20212;-77
2023/05/03 09:44:43;;;;;;;2.60;1.97;;;11.80;88.90;;;;;;5028374;28;20891;-70
2023/05/03 09:47:09;;;;;;;4.10;2.50;;;11.80;88.70;;;;;;5025762;28;20207;-70
2023/05/03 09:49:38;;;;;;;6.37;2.77;;;11.80;87.90;;;;;;5026949;28;20912;-70
2023/05/03 09:52:05;;;;;;;6.50;3.63;;;11.80;88.40;;;;;;5026345;28;20208;-72
2023/05/03 09:54:31;;;;;;;5.67;2.57;;;12.10;90.00;;;;;;5028531;28;20216;-72
2023/05/03 09:56:56;;;;;;;4.70;2.27;;;12.30;87.20;;;;;;5030847;28;20229;-70
2023/05/03 09:59:22;;;;;;;3.40;1.90;;;12.30;86.90;;;;;;5028866;28;20209;-70
2023/05/03 10:01:55;;;;;;;5.17;2.63;;;12.40;89.30;;;;;;5021451;28;20202;-70
2023/05/03 10:04:23;;;;;;;4.43;1.90;;;12.00;87.60;;;;;;5033922;28;20202;-72
2023/05/03 10:06:50;;;;;;;8.20;2.80;;;12.00;88.80;;;;;;5027139;28;20313;-72
2023/05/03 10:09:27;;;;;;;5.33;2.00;;;12.00;87.80;;;;;;5036887;28;20639;-72
2023/05/03 10:11:53;;;;;;;3.80;1.67;;;12.20;89.50;;;;;;5025553;28;20251;-73
2023/05/03 10:14:20;;;;;;;2.30;1.77;;;12.40;89.30;;;;;;5028218;28;20812;-73
2023/05/03 10:16:48;;;;;;;3.67;1.93;;;12.30;89.00;;;;;;5038219;28;20215;-74
2023/05/03 10:19:26;;;;;;;3.43;2.43;;;12.30;88.60;;;;;;5037182;28;20296;-72
2023/05/03 10:22:08;;;;;;;4.07;1.77;;;12.30;87.30;;;;;;5028332;28;20287;-72
2023/05/03 10:24:58;;;;;;;2.53;1.80;;;12.50;89.40;;;;;;5037241;28;20202;-73
2023/05/03 10:27:25;;;;;;;11.20;5.77;;;12.60;86.60;;;;;;5035903;28;20202;-72
2023/05/03 10:29:51;;;;;;;7.37;4.20;;;12.90;85.20;;;;;;5037959;28;20217;-70
2023/05/03 10:32:41;;;;;;;3.13;1.83;;;12.90;84.80;;;;;;5037722;28;20297;-72
2023/05/03 10:35:15;;;;;;;5.50;1.90;;;13.10;85.40;;;;;;5037719;28;20565;-70
2023/05/03 10:37:42;;;;;;;3.50;1.40;;;13.20;87.10;;;;;;5038029;28;20213;-74
2023/05/03 10:40:11;;;;;;;3.10;2.33;;;12.90;86.00;;;;;;5039724;28;20681;-77
2023/05/03 10:42:37;;;;;;;6.03;1.60;;;12.90;85.70;;;;;;5038191;28;20265;-73
2023/05/03 10:45:06;;;;;;;1.73;1.27;;;12.80;85.10;;;;;;5037692;28;20698;-73
2023/05/03 10:47:32;;;;;;;3.30;2.20;;;13.00;84.30;;;;;;5037542;28;20226;-76
2023/05/03 10:50:15;;;;;;;4.20;1.87;;;13.10;86.20;;;;;;5025981;28;20206;-73
2023/05/03 10:52:41;;;;;;;3.77;2.07;;;13.20;82.30;;;;;;5027247;28;20202;-74
2023/05/03 10:55:09;;;;;;;5.10;1.93;;;13.10;83.90;;;;;;5026801;28;20274;-75
2023/05/03 10:57:37;;;;;;;7.87;2.37;;;13.00;83.60;;;;;;5025379;28;20591;-72
2023/05/03 11:00:07;;;;;;;5.43;1.70;;;13.00;82.50;;;;;;5028432;28;20202;-71
2023/05/03 11:02:37;;;;;;;5.57;2.13;;;13.30;83.80;;;;;;5021629;28;20283;-75
2023/05/03 11:05:07;;;;;;;7.50;1.80;;;13.50;83.70;;;;;;5036944;28;20748;-75
2023/05/03 11:07:33;;;;;;;6.13;2.10;;;13.50;85.30;;;;;;5036704;28;20202;-74
2023/05/03 11:09:58;;;;;;;3.93;1.70;;;13.70;82.10;;;;;;5036479;28;20208;-74
2023/05/03 11:12:24;;;;;;;4.57;2.37;;;14.00;82.80;;;;;;5028137;28;20219;-74
2023/05/03 11:14:50;;;;;;;4.00;2.13;;;14.50;80.40;;;;;;5031390;28;20209;-75
2023/05/03 11:17:16;;;;;;;4.10;2.20;;;14.10;82.20;;;;;;5026769;28;20297;-74
2023/05/03 11:19:43;;;;;;;2.60;1.47;;;14.40;83.40;;;;;;5030098;28;20282;-75
2023/05/03 11:22:08;;;;;;;2.50;2.00;;;13.90;82.50;;;;;;5025551;28;20194;-76
2023/05/03 11:24:37;;;;;;;2.77;1.50;;;14.20;78.00;;;;;;5034659;28;20754;-74
2023/05/03 11:27:02;;;;;;;3.30;1.77;;;14.30;79.60;;;;;;5036629;28;20692;-75
2023/05/03 11:29:28;;;;;;;6.73;1.90;;;14.40;78.70;;;;;;5036208;28;20226;-70
2023/05/03 11:31:54;;;;;;;1.77;1.50;;;14.40;78.70;;;;;;5036203;28;20653;-73
2023/05/03 11:34:19;;;;;;;2.67;1.57;;;14.50;75.90;;;;;;5035904;28;20214;-71
2023/05/03 11:36:45;;;;;;;2.37;1.30;;;14.40;76.80;;;;;;5035206;28;20222;-71
2023/05/03 11:39:12;;;;;;;3.43;1.60;;;14.70;75.80;;;;;;5021344;28;20760;-73
2023/05/03 11:41:38;;;;;;;3.23;1.73;;;14.80;79.40;;;;;;5026291;28;20771;-69
2023/05/03 11:44:05;;;;;;;3.50;1.53;;;15.10;78.80;;;;;;5032671;28;20202;-74
2023/05/03 11:46:34;;;;;;;2.23;1.30;;;15.90;75.80;;;;;;5030780;28;20507;-74
2023/05/03 11:49:01;;;;;;;2.63;1.70;;;15.80;72.40;;;;;;5024831;28;20672;-73
2023/05/03 11:51:27;;;;;;;4.23;2.03;;;16.00;76.10;;;;;;5025363;28;20917;-75
2023/05/03 11:53:52;;;;;;;5.23;1.67;;;15.90;75.00;;;;;;5031868;28;20216;-75
2023/05/03 11:56:19;;;;;;;4.33;1.90;;;16.00;69.00;;;;;;5028441;28;20194;-75
2023/05/03 11:58:50;;;;;;;4.00;2.13;;;16.10;69.60;;;;;;5026679;28;20210;-75
2023/05/03 12:01:18;;;;;;;2.43;1.50;;;15.70;69.10;;;;;;5035944;28;20245;-75
2023/05/03 12:03:46;;;;;;;9.07;3.47;;;15.80;67.60;;;;;;5035765;28;20243;-70
2023/05/03 12:06:12;;;;;;;4.10;1.67;;;15.80;68.00;;;;;;5036198;28;20200;-72
2023/05/03 12:08:37;;;;;;;2.77;1.60;;;16.80;67.40;;;;;;5034633;28;20257;-69
2023/05/03 12:11:05;;;;;;;3.27;1.90;;;16.80;68.30;;;;;;5015102;28;20286;-73
2023/05/03 12:13:35;;;;;;;2.80;2.10;;;16.50;67.40;;;;;;5028108;28;20195;-71
2023/05/03 12:16:02;;;;;;;2.77;1.60;;;16.30;69.00;;;;;;5028841;28;20214;-71
2023/05/03 12:18:51;;;;;;;5.07;2.10;;;15.90;72.50;;;;;;5022254;28;20290;-72
2023/05/03 12:21:19;;;;;;;4.60;2.30;;;16.60;68.70;;;;;;5019872;28;20200;-75
2023/05/03 12:23:45;;;;;;;3.00;1.70;;;17.00;66.90;;;;;;5034364;28;20229;-74
2023/05/03 12:26:11;;;;;;;5.10;2.50;;;16.50;66.50;;;;;;5024801;28;20270;-72
2023/05/03 12:28:36;;;;;;;3.03;2.13;;;17.10;66.60;;;;;;5025892;28;20229;-69
2023/05/03 12:31:03;;;;;;;3.87;1.77;;;18.10;63.20;;;;;;5035278;28;20208;-69
2023/05/03 12:33:29;;;;;;;5.07;2.00;;;17.70;61.30;;;;;;5032171;28;20299;-73
2023/05/03 12:35:55;;;;;;;2.77;1.83;;;17.50;61.20;;;;;;5020216;28;20332;-73
2023/05/03 12:38:22;;;;;;;1.87;1.60;;;18.00;61.60;;;;;;5022697;28;20814;-76
2023/05/03 12:40:47;;;;;;;3.47;1.33;;;17.60;60.00;;;;;;5018187;28;20248;-77
2023/05/03 12:43:13;;;;;;;3.40;2.50;;;17.20;60.00;;;;;;5019279;28;20291;-74
2023/05/03 12:45:38;;;;;;;3.87;1.83;;;17.00;60.50;;;;;;5024192;28;20239;-77
2023/05/03 12:48:04;;;;;;;4.10;1.73;;;16.90;59.30;;;;;;5027590;28;21080;-74
2023/05/03 12:50:30;;;;;;;3.33;1.47;;;17.00;59.20;;;;;;5022337;28;20802;-73